Skip Navigation Links Skip Navigation Links

Current Weather

Ottumwa Industrial, Ottumwa, Iowa

For information only: do not use for flight planning or navigation.
Latest weather
Observation time Friday, January 28, 2022 12:08 AM CST
Local time Friday, January 28, 2022 12:21 AM CST
Flight conditions Marginal Visual Meteorological Conditions
Winds
Wind direction Northwest (320°)
Wind speed 20 mph
Visibility 10 mi.
Sky condition
Ceiling 2,600 ft. broken clouds
Cloud layer broken clouds 2,600 ft.
Cloud layer broken clouds 6,000 ft.
Cloud layer overcast 7,500 ft.
Temperature 16°F
Dewpoint 10°F
Altimeter 30.35 in.Hg
Derived measurements
Relative humidity 77%
Wind chill -1°F
Density altitude -2591 ft.
Remarks
Fully automated report.
Automated weather observing station with precipitation discriminator.
METAR KOTM 280608Z AUTO 32017KT 10SM BKN026 BKN060 OVC075 M09/M12 A3035 RMK AO2 T10891122

Settings

Location code

InnerDrive.Weather 4.0.6770.0 Release CLR 4.0.30319.42000
Copyright ©2018 Inner Drive Technology. All rights reserved. Portions Copyright ©1986-2018 David Braverman.

Find weather

Site navigation


Skip Navigation Links

Place info

Page info

PayPal - The safer, easier way to pay online!

Return home.

Copyright ©2022 Inner Drive Technology. Purveyors of fine, hand-crafted computer software. Page printed 2022-01-28T06:21:14 UTC.